createdAt,value
2022-10-12T00:01:33.518Z,13.50
2022-10-12T00:04:35.852Z,13.50
2022-10-12T00:07:38.199Z,13.40
2022-10-12T00:10:41.079Z,13.50
2022-10-12T00:13:42.979Z,13.50
2022-10-12T00:16:44.837Z,13.40
2022-10-12T00:19:46.731Z,13.20
2022-10-12T00:22:48.569Z,13.30
2022-10-12T00:25:50.735Z,13.20
2022-10-12T00:28:58.174Z,13.20
2022-10-12T00:32:00.090Z,13.10
2022-10-12T00:35:01.920Z,13.10
2022-10-12T00:38:03.817Z,13.10
2022-10-12T00:41:05.980Z,13.20
2022-10-12T00:44:50.120Z,13.10
2022-10-12T00:47:56.557Z,13.10
2022-10-12T00:51:01.441Z,13.10
2022-10-12T00:54:08.351Z,13.20
2022-10-12T00:57:13.302Z,13.00
2022-10-12T01:00:15.820Z,13.10
2022-10-12T01:03:22.331Z,12.90
2022-10-12T01:06:24.231Z,12.90
2022-10-12T01:09:26.608Z,12.80
2022-10-12T01:12:28.813Z,12.90
2022-10-12T01:16:05.209Z,12.90
2022-10-12T01:19:10.055Z,12.70
2022-10-12T01:22:17.212Z,12.60
2022-10-12T01:25:53.437Z,12.60
2022-10-12T01:28:55.322Z,12.60
2022-10-12T01:32:13.079Z,12.60
2022-10-12T01:35:37.736Z,12.50
2022-10-12T01:38:48.941Z,12.50
2022-10-12T01:41:55.542Z,12.40
2022-10-12T01:45:08.934Z,12.50
2022-10-12T01:48:10.917Z,12.60
2022-10-12T01:51:19.077Z,12.40
2022-10-12T01:54:30.911Z,12.40
2022-10-12T01:57:54.487Z,12.50
2022-10-12T02:01:16.005Z,12.40
2022-10-12T02:04:34.513Z,12.30
2022-10-12T02:07:49.012Z,12.20
2022-10-12T02:11:00.480Z,12.30
2022-10-12T02:14:21.492Z,12.20
2022-10-12T02:17:24.092Z,12.20
2022-10-12T02:20:27.047Z,12.40
2022-10-12T02:23:29.564Z,12.20
2022-10-12T02:26:34.597Z,12.10
2022-10-12T02:29:40.147Z,12.00
2022-10-12T02:32:51.130Z,12.10
2022-10-12T02:36:00.708Z,12.00
2022-10-12T02:39:17.818Z,12.00
2022-10-12T02:42:25.608Z,12.00
2022-10-12T02:45:29.047Z,12.10
2022-10-12T02:48:31.724Z,12.20
2022-10-12T02:51:35.329Z,12.10
2022-10-12T02:54:39.807Z,12.10
2022-10-12T02:57:41.985Z,12.10
2022-10-12T03:00:46.341Z,12.20
2022-10-12T03:03:48.192Z,12.20
2022-10-12T03:10:10.955Z,12.20
2022-10-12T03:13:13.108Z,12.10
2022-10-12T03:16:15.183Z,12.10
2022-10-12T03:19:17.273Z,11.90
2022-10-12T03:22:19.207Z,11.90
2022-10-12T03:25:25.019Z,11.90
2022-10-12T03:28:35.905Z,11.90
2022-10-12T03:32:03.082Z,11.90
2022-10-12T03:35:22.713Z,11.90
2022-10-12T03:38:25.188Z,11.80
2022-10-12T03:41:27.222Z,11.80
2022-10-12T03:44:29.205Z,11.70
2022-10-12T03:47:31.519Z,11.70
2022-10-12T03:50:34.618Z,11.80
2022-10-12T03:53:36.487Z,11.70
2022-10-12T03:56:38.444Z,11.80
2022-10-12T03:59:40.307Z,11.80
2022-10-12T04:02:42.171Z,11.80
2022-10-12T04:05:44.065Z,11.70
2022-10-12T04:08:49.921Z,11.80
2022-10-12T04:11:54.221Z,11.70
2022-10-12T04:14:56.030Z,11.70
2022-10-12T04:17:57.869Z,11.60
2022-10-12T04:21:00.717Z,11.60
2022-10-12T04:24:02.521Z,11.50
2022-10-12T04:27:04.589Z,11.60
2022-10-12T04:30:07.104Z,11.70
2022-10-12T04:33:08.998Z,11.60
2022-10-12T04:36:11.816Z,11.80
2022-10-12T04:39:13.703Z,11.70
2022-10-12T04:42:15.608Z,11.60
2022-10-12T04:45:17.528Z,11.50
2022-10-12T04:48:19.403Z,11.70
2022-10-12T04:51:21.245Z,11.80
2022-10-12T04:54:23.171Z,11.60
2022-10-12T04:57:25.115Z,11.70
2022-10-12T05:00:26.981Z,11.60
2022-10-12T05:03:29.978Z,11.70
2022-10-12T05:06:31.880Z,11.60
2022-10-12T05:09:33.689Z,11.90
2022-10-12T05:12:35.918Z,11.80
2022-10-12T05:15:37.898Z,11.80
2022-10-12T05:18:39.828Z,11.70
2022-10-12T05:21:41.629Z,11.70
2022-10-12T05:24:43.469Z,11.60
2022-10-12T05:27:45.395Z,11.60
2022-10-12T05:30:50.369Z,11.70
2022-10-12T05:33:54.106Z,11.60
2022-10-12T05:36:55.988Z,11.60
2022-10-12T05:39:57.843Z,11.70
2022-10-12T05:43:01.020Z,11.50
2022-10-12T05:46:02.923Z,11.60
2022-10-12T05:49:05.520Z,11.60
2022-10-12T05:52:08.017Z,11.60
2022-10-12T05:55:10.054Z,11.60
2022-10-12T05:58:11.899Z,11.70
2022-10-12T06:01:14.202Z,11.60
2022-10-12T06:04:16.523Z,11.60
2022-10-12T06:07:18.342Z,11.60
2022-10-12T06:10:20.247Z,11.70
2022-10-12T06:13:22.354Z,11.70
2022-10-12T06:16:24.967Z,11.70
2022-10-12T06:19:26.830Z,11.80
2022-10-12T06:22:28.702Z,11.80
2022-10-12T06:25:30.760Z,11.80
2022-10-12T06:28:32.751Z,12.00
2022-10-12T06:31:34.825Z,12.00
2022-10-12T06:34:36.646Z,12.00
2022-10-12T06:37:49.864Z,12.10
2022-10-12T06:40:53.496Z,12.20
2022-10-12T06:43:55.443Z,12.30
2022-10-12T06:46:57.258Z,12.50
2022-10-12T06:49:59.111Z,12.40
2022-10-12T06:53:00.937Z,12.70
2022-10-12T06:56:10.152Z,12.90
2022-10-12T06:59:13.034Z,13.10
2022-10-12T07:02:17.505Z,13.10
2022-10-12T07:05:19.818Z,13.10
2022-10-12T07:08:21.783Z,13.20
2022-10-12T07:11:23.887Z,13.20
2022-10-12T07:14:25.815Z,13.30
2022-10-12T07:17:27.638Z,13.30
2022-10-12T07:20:29.426Z,13.30
2022-10-12T07:23:32.626Z,13.40
2022-10-12T07:26:34.482Z,13.40
2022-10-12T07:29:37.757Z,13.30
2022-10-12T07:32:39.576Z,13.40
2022-10-12T07:36:03.181Z,13.40
2022-10-12T07:39:03.867Z,13.40
2022-10-12T07:42:05.819Z,13.40
2022-10-12T07:45:08.507Z,13.50
2022-10-12T07:48:10.418Z,13.60
2022-10-12T07:51:12.293Z,13.40
2022-10-12T07:54:19.871Z,13.60
2022-10-12T07:57:23.207Z,13.70
2022-10-12T08:00:25.223Z,13.60
2022-10-12T08:03:27.132Z,13.60
2022-10-12T08:06:32.329Z,13.70
2022-10-12T08:09:36.865Z,13.80
2022-10-12T08:12:38.772Z,13.90
2022-10-12T08:15:40.675Z,13.80
2022-10-12T08:18:42.951Z,13.90
2022-10-12T08:21:44.824Z,14.00
2022-10-12T08:24:46.713Z,14.00
2022-10-12T08:27:48.732Z,14.20
2022-10-12T08:30:51.383Z,14.40
2022-10-12T08:33:53.693Z,14.90
2022-10-12T08:36:55.633Z,15.10
2022-10-12T08:40:02.203Z,15.20
2022-10-12T08:43:24.611Z,15.20
2022-10-12T08:46:27.364Z,15.40
2022-10-12T08:49:32.755Z,15.30
2022-10-12T08:52:51.981Z,15.30
2022-10-12T08:55:54.744Z,15.60
2022-10-12T08:58:56.901Z,15.50
2022-10-12T09:02:35.012Z,15.60
2022-10-12T09:05:50.524Z,15.60
2022-10-12T09:09:13.803Z,15.90
2022-10-12T09:12:46.650Z,15.90
2022-10-12T09:15:54.382Z,16.40
2022-10-12T09:19:01.048Z,16.80
2022-10-12T09:22:05.171Z,17.10
2022-10-12T09:25:13.960Z,17.30
2022-10-12T09:28:31.616Z,17.60
2022-10-12T09:32:18.299Z,18.00
2022-10-12T09:35:20.954Z,17.90
2022-10-12T09:38:23.116Z,18.20
2022-10-12T09:41:27.507Z,18.30
2022-10-12T09:44:36.298Z,17.90
2022-10-12T09:47:40.436Z,18.20
2022-10-12T09:50:47.646Z,19.00
2022-10-12T09:53:54.118Z,19.00
2022-10-12T09:56:58.955Z,19.30
2022-10-12T10:00:02.938Z,19.30
2022-10-12T10:03:29.133Z,19.70
2022-10-12T10:06:34.132Z,20.20
2022-10-12T10:09:36.007Z,20.20
2022-10-12T10:12:41.964Z,20.00
2022-10-12T10:15:48.330Z,20.10
2022-10-12T10:19:00.512Z,20.10
2022-10-12T10:22:06.390Z,20.40
2022-10-12T10:25:20.843Z,20.80
2022-10-12T10:28:25.564Z,20.50
2022-10-12T10:31:27.854Z,20.70
2022-10-12T10:34:29.763Z,20.00
2022-10-12T10:37:35.498Z,19.90
2022-10-12T10:40:39.099Z,20.30
2022-10-12T10:43:46.852Z,20.20
2022-10-12T10:46:49.034Z,20.80
2022-10-12T10:50:03.115Z,20.80
2022-10-12T11:03:22.887Z,21.50
2022-10-12T11:06:30.778Z,21.10
2022-10-12T11:09:43.997Z,20.60
2022-10-12T11:12:48.525Z,20.50
2022-10-12T11:15:58.330Z,20.40
2022-10-12T11:19:10.370Z,20.30
2022-10-12T11:22:20.093Z,20.40
2022-10-12T11:25:29.352Z,20.00
2022-10-12T11:28:33.213Z,19.90
2022-10-12T11:31:37.929Z,19.70
2022-10-12T11:34:48.576Z,20.00
2022-10-12T11:37:59.264Z,20.00
2022-10-12T11:41:52.467Z,20.40
2022-10-12T11:44:43.319Z,20.50
2022-10-12T11:47:47.283Z,20.50
2022-10-12T11:50:50.603Z,20.50
2022-10-12T11:54:01.979Z,20.50
2022-10-12T11:57:10.198Z,20.20
2022-10-12T12:00:17.127Z,20.20
2022-10-12T12:03:48.323Z,20.20
2022-10-12T12:07:02.990Z,20.40
2022-10-12T12:10:28.662Z,20.70
2022-10-12T12:13:31.240Z,20.40
2022-10-12T12:16:33.342Z,20.50
2022-10-12T12:19:37.519Z,20.40
2022-10-12T12:22:48.540Z,20.40
2022-10-12T12:26:15.600Z,20.40
2022-10-12T12:29:29.622Z,20.60
2022-10-12T12:32:50.523Z,20.80
2022-10-12T12:35:56.924Z,20.70
2022-10-12T12:38:59.800Z,20.70
2022-10-12T12:42:04.403Z,20.60
2022-10-12T12:45:31.218Z,20.70
2022-10-12T12:48:39.077Z,20.80
2022-10-12T12:51:43.635Z,21.20
2022-10-12T12:55:14.512Z,21.30
2022-10-12T12:58:35.770Z,20.90
2022-10-12T13:02:08.500Z,20.70
2022-10-12T13:05:48.166Z,20.80
2022-10-12T13:09:28.699Z,20.80
2022-10-12T13:12:33.402Z,20.50
2022-10-12T13:15:52.545Z,20.70
2022-10-12T13:18:57.425Z,20.80
2022-10-12T13:22:05.664Z,21.00
2022-10-12T13:25:15.200Z,20.90
2022-10-12T13:28:27.616Z,20.90
2022-10-12T13:31:38.075Z,20.60
2022-10-12T13:34:45.662Z,20.70
2022-10-12T13:38:04.410Z,20.70
2022-10-12T13:41:18.495Z,20.70
2022-10-12T13:44:29.856Z,20.80
2022-10-12T13:47:33.348Z,20.80
2022-10-12T13:50:35.510Z,20.90
2022-10-12T13:53:39.324Z,21.00
2022-10-12T13:56:41.705Z,20.90
2022-10-12T13:59:43.894Z,20.90
2022-10-12T14:03:00.694Z,20.60
2022-10-12T14:06:04.514Z,20.50
2022-10-12T14:09:16.917Z,20.40
2022-10-12T14:12:25.294Z,20.40
2022-10-12T14:15:33.682Z,20.60
2022-10-12T14:18:41.207Z,20.50
2022-10-12T14:21:47.207Z,20.50
2022-10-12T14:24:49.842Z,20.50
2022-10-12T14:28:06.546Z,20.40
2022-10-12T14:31:08.491Z,20.40
2022-10-12T14:34:34.144Z,20.30
2022-10-12T14:37:36.348Z,20.30
2022-10-12T14:40:39.097Z,20.30
2022-10-12T14:43:42.007Z,20.40
2022-10-12T14:47:03.449Z,20.40
2022-10-12T14:50:07.724Z,20.20
2022-10-12T14:53:12.494Z,20.00
2022-10-12T14:56:14.437Z,20.10
2022-10-12T14:59:16.355Z,19.90
2022-10-12T15:02:22.180Z,19.90
2022-10-12T15:05:25.977Z,19.90
2022-10-12T15:08:27.804Z,19.90
2022-10-12T15:11:29.700Z,19.90
2022-10-12T15:14:31.514Z,19.80
2022-10-12T15:17:33.346Z,19.70
2022-10-12T15:20:35.662Z,19.70
2022-10-12T15:23:37.857Z,19.60
2022-10-12T15:26:42.335Z,19.50
2022-10-12T15:29:44.977Z,19.50
2022-10-12T15:32:48.123Z,19.50
2022-10-12T15:35:51.269Z,19.50
2022-10-12T15:38:53.653Z,19.40
2022-10-12T15:41:55.788Z,19.40
2022-10-12T15:44:58.041Z,19.40
2022-10-12T15:48:00.194Z,19.40
2022-10-12T15:51:07.501Z,19.40
2022-10-12T15:54:10.973Z,19.20
2022-10-12T15:57:13.186Z,19.10
2022-10-12T16:00:18.407Z,19.10
2022-10-12T16:03:25.659Z,19.00
2022-10-12T16:06:27.973Z,19.00
2022-10-12T16:09:29.967Z,18.90
2022-10-12T16:12:31.798Z,18.90
2022-10-12T16:15:35.555Z,18.80
2022-10-12T16:18:38.310Z,18.70
2022-10-12T16:21:40.420Z,18.60
2022-10-12T16:24:42.260Z,18.50
2022-10-12T16:27:45.654Z,18.40
2022-10-12T16:30:47.797Z,18.30
2022-10-12T16:33:49.705Z,18.10
2022-10-12T16:36:52.909Z,18.10
2022-10-12T16:39:55.402Z,18.10
2022-10-12T16:42:57.340Z,18.00
2022-10-12T16:45:59.194Z,18.00
2022-10-12T16:49:01.006Z,17.90
2022-10-12T16:52:03.445Z,17.60
2022-10-12T16:55:05.997Z,17.50
2022-10-12T16:58:07.822Z,17.50
2022-10-12T17:01:12.393Z,17.40
2022-10-12T17:04:17.140Z,17.40
2022-10-12T17:07:19.800Z,17.20
2022-10-12T17:10:21.629Z,17.20
2022-10-12T17:13:23.452Z,17.20
2022-10-12T17:16:25.426Z,17.20
2022-10-12T17:19:32.038Z,17.10
2022-10-12T17:22:33.896Z,16.90
2022-10-12T17:25:35.780Z,16.80
2022-10-12T17:28:40.926Z,16.70
2022-10-12T17:31:44.331Z,16.70
2022-10-12T17:34:46.418Z,16.50
2022-10-12T17:37:48.330Z,16.50
2022-10-12T17:40:50.458Z,16.40
2022-10-12T17:43:52.325Z,16.40
2022-10-12T17:46:54.189Z,16.40
2022-10-12T17:49:58.557Z,16.20
2022-10-12T17:53:00.483Z,16.30
2022-10-12T17:56:03.808Z,16.00
2022-10-12T17:59:05.767Z,15.80
2022-10-12T18:02:10.371Z,15.70
2022-10-12T18:05:12.164Z,15.70
2022-10-12T18:08:14.360Z,15.70
2022-10-12T18:11:17.750Z,15.50
2022-10-12T18:14:19.676Z,15.70
2022-10-12T18:17:21.585Z,15.60
2022-10-12T18:20:23.441Z,15.70
2022-10-12T18:23:27.992Z,15.70
2022-10-12T18:26:32.965Z,15.70
2022-10-12T18:29:34.873Z,15.60
2022-10-12T18:32:36.737Z,15.50
2022-10-12T18:35:38.697Z,15.40
2022-10-12T18:38:41.130Z,15.40
2022-10-12T18:41:42.910Z,15.50
2022-10-12T18:44:44.818Z,15.30
2022-10-12T18:47:46.869Z,15.40
2022-10-12T18:50:50.244Z,15.40
2022-10-12T18:53:52.437Z,15.30
2022-10-12T18:56:54.342Z,15.20
2022-10-12T18:59:56.373Z,15.20
2022-10-12T19:02:58.308Z,15.00
2022-10-12T19:06:09.300Z,14.90
2022-10-12T19:09:12.987Z,14.90
2022-10-12T19:12:15.113Z,14.90
2022-10-12T19:15:17.173Z,14.90
2022-10-12T19:18:19.060Z,15.10
2022-10-12T19:21:21.007Z,15.20
2022-10-12T19:24:23.923Z,15.10
2022-10-12T19:27:25.914Z,15.00
2022-10-12T19:30:27.847Z,15.00
2022-10-12T19:33:29.698Z,15.00
2022-10-12T19:36:31.803Z,15.00
2022-10-12T19:39:33.981Z,14.90
2022-10-12T19:42:35.850Z,14.90
2022-10-12T19:45:41.488Z,14.90
2022-10-12T19:48:46.974Z,14.90
2022-10-12T19:51:48.921Z,14.90
2022-10-12T19:54:50.867Z,14.90
2022-10-12T19:57:52.767Z,14.90
2022-10-12T20:01:01.237Z,14.90
2022-10-12T20:04:08.549Z,14.90
2022-10-12T20:07:10.429Z,14.90
2022-10-12T20:10:12.705Z,14.80
2022-10-12T20:13:15.041Z,14.50
2022-10-12T20:16:19.294Z,14.30
2022-10-12T20:19:21.539Z,14.30
2022-10-12T20:22:23.607Z,14.30
2022-10-12T20:25:25.546Z,14.30
2022-10-12T20:28:27.516Z,14.30
2022-10-12T20:31:29.568Z,14.10
2022-10-12T20:34:31.610Z,14.20
2022-10-12T20:37:34.227Z,14.00
2022-10-12T20:40:36.108Z,14.00
2022-10-12T20:43:38.432Z,14.10
2022-10-12T20:46:40.321Z,14.00
2022-10-12T20:49:42.396Z,13.90
2022-10-12T20:52:44.640Z,13.90
2022-10-12T20:55:46.455Z,13.90
2022-10-12T20:58:48.486Z,13.90
2022-10-12T21:01:50.413Z,13.90
2022-10-12T21:04:54.642Z,13.90
2022-10-12T21:07:56.876Z,13.70
2022-10-12T21:10:59.188Z,13.40
2022-10-12T21:14:01.161Z,13.40
2022-10-12T21:17:03.457Z,13.50
2022-10-12T21:20:05.836Z,13.60
2022-10-12T21:23:07.670Z,13.50
2022-10-12T21:26:18.490Z,13.20
2022-10-12T21:29:20.364Z,13.40
2022-10-12T21:32:22.289Z,13.40
2022-10-12T21:35:24.248Z,13.40
2022-10-12T21:38:26.140Z,13.40
2022-10-12T21:41:29.552Z,13.40
2022-10-12T21:44:31.462Z,13.40
2022-10-12T21:47:33.338Z,13.30
2022-10-12T21:50:35.194Z,13.40
2022-10-12T21:53:38.498Z,13.20
2022-10-12T21:56:40.330Z,13.20
2022-10-12T21:59:42.225Z,13.30
2022-10-12T22:02:47.960Z,13.20
2022-10-12T22:05:49.856Z,13.20
2022-10-12T22:09:16.310Z,13.10
2022-10-12T22:12:18.544Z,12.90
2022-10-12T22:15:20.619Z,12.90
2022-10-12T22:18:22.564Z,13.00
2022-10-12T22:21:24.556Z,13.00
2022-10-12T22:24:26.443Z,13.10
2022-10-12T22:27:29.969Z,12.90
2022-10-12T22:30:32.025Z,13.00
2022-10-12T22:33:35.683Z,12.90
2022-10-12T22:36:37.896Z,12.80
2022-10-12T22:39:41.496Z,12.90
2022-10-12T22:42:43.391Z,12.90
2022-10-12T22:45:45.219Z,12.90
2022-10-12T22:48:48.519Z,12.60
2022-10-12T22:51:50.604Z,12.50
2022-10-12T22:54:52.433Z,12.50
2022-10-12T22:57:54.280Z,12.70
2022-10-12T23:01:07.644Z,12.70
2022-10-12T23:04:09.707Z,12.60
2022-10-12T23:07:11.517Z,12.70
2022-10-12T23:10:13.535Z,12.70
2022-10-12T23:13:15.404Z,12.70
2022-10-12T23:16:24.475Z,12.70
2022-10-12T23:19:26.367Z,12.50
2022-10-12T23:22:28.811Z,12.50
2022-10-12T23:25:30.651Z,12.40
2022-10-12T23:28:32.884Z,12.60
2022-10-12T23:31:34.775Z,12.70
2022-10-12T23:34:36.606Z,12.70
2022-10-12T23:37:43.348Z,12.80
2022-10-12T23:40:46.086Z,12.90
2022-10-12T23:43:48.061Z,13.00
2022-10-12T23:46:50.035Z,13.20
2022-10-12T23:49:51.874Z,13.20
2022-10-12T23:52:53.721Z,13.00
2022-10-12T23:55:55.817Z,13.00
2022-10-12T23:58:57.797Z,12.80
